Time;durP1;ratioP1;P1;durP2;ratioP2;P2;SDS_P1;SDS_P2;PMS_P1;PMS_P2;Temp;Humidity;BMP_temperature;BMP_pressure;BME280_temperature;BME280_humidity;BME280_pressure;Samples;Min_cycle;Max_cycle;Signal;HPM_P1;HPM_P2
2022/05/09 00:01:58;;;;;;;6.40;2.30;;;11.00;99.90;;;;;;5012152;28;20029;-59
2022/05/09 00:04:24;;;;;;;7.75;2.47;;;11.00;99.90;;;;;;5002527;28;20037;-60
2022/05/09 00:06:50;;;;;;;7.47;2.53;;;11.00;99.90;;;;;;5004743;28;20156;-59
2022/05/09 00:09:16;;;;;;;6.22;2.47;;;11.00;99.90;;;;;;5002900;28;20088;-60
2022/05/09 00:11:42;;;;;;;8.73;3.38;;;10.90;99.90;;;;;;5002334;28;20029;-59
2022/05/09 00:14:08;;;;;;;6.47;2.80;;;11.00;99.90;;;;;;4996913;28;20687;-59
2022/05/09 00:16:34;;;;;;;7.28;3.15;;;11.00;99.90;;;;;;4998237;28;20061;-60
2022/05/09 00:19:05;;;;;;;9.15;2.50;;;11.00;99.90;;;;;;4990636;28;20054;-60
2022/05/09 00:21:36;;;;;;;11.63;2.67;;;10.90;99.90;;;;;;4999008;28;20037;-59
2022/05/09 00:24:03;;;;;;;9.82;2.30;;;10.70;99.90;;;;;;4971208;28;20491;-60
2022/05/09 00:26:32;;;;;;;7.95;2.90;;;10.70;99.90;;;;;;4999101;28;20117;-59
2022/05/09 00:28:59;;;;;;;6.13;2.72;;;10.60;99.90;;;;;;4996410;28;20027;-60
2022/05/09 00:31:25;;;;;;;9.07;3.03;;;10.50;99.90;;;;;;4996315;28;20476;-60
2022/05/09 00:33:51;;;;;;;11.82;3.35;;;10.40;99.90;;;;;;4999532;28;20681;-59
2022/05/09 00:36:17;;;;;;;6.80;2.70;;;10.40;99.90;;;;;;4986012;28;20049;-59
2022/05/09 00:38:44;;;;;;;10.02;3.20;;;10.30;99.90;;;;;;4999125;28;20037;-60
2022/05/09 00:41:28;;;;;;;9.82;2.90;;;10.30;99.90;;;;;;4997630;28;20026;-60
2022/05/09 00:43:56;;;;;;;10.98;4.20;;;10.20;99.90;;;;;;4998151;28;20030;-58
2022/05/09 00:46:22;;;;;;;6.88;2.85;;;10.20;99.90;;;;;;5000038;28;20036;-59
2022/05/09 00:48:48;;;;;;;7.32;2.65;;;10.10;99.90;;;;;;5000774;28;20038;-60
2022/05/09 00:51:18;;;;;;;7.65;2.63;;;10.10;99.90;;;;;;5001919;28;20044;-58
2022/05/09 00:53:45;;;;;;;14.45;3.45;;;10.10;99.90;;;;;;5003227;28;20014;-59
2022/05/09 00:56:19;;;;;;;9.77;2.60;;;10.10;99.90;;;;;;5001924;28;20037;-58
2022/05/09 00:58:50;;;;;;;6.35;2.20;;;10.10;99.90;;;;;;5005296;28;20048;-60
2022/05/09 01:01:16;;;;;;;10.10;2.20;;;10.10;99.90;;;;;;4993841;28;20079;-60
2022/05/09 01:03:49;;;;;;;13.02;4.05;;;10.10;99.90;;;;;;5001944;28;20085;-60
2022/05/09 01:06:15;;;;;;;13.13;2.73;;;10.20;99.90;;;;;;4999525;28;20033;-60
2022/05/09 01:08:40;;;;;;;6.63;2.65;;;10.10;99.90;;;;;;4999091;28;20299;-60
2022/05/09 01:11:10;;;;;;;9.15;3.55;;;10.10;99.90;;;;;;5000988;28;20073;-59
2022/05/09 01:13:42;;;;;;;8.75;3.05;;;10.10;99.90;;;;;;5003220;28;20509;-60
2022/05/09 01:16:08;;;;;;;7.50;2.60;;;10.10;99.90;;;;;;5000753;28;20030;-59
2022/05/09 01:18:36;;;;;;;7.70;2.58;;;10.10;99.90;;;;;;5007528;28;20462;-58
2022/05/09 01:21:21;;;;;;;9.10;2.65;;;10.00;99.90;;;;;;5002573;28;20061;-60
2022/05/09 01:23:47;;;;;;;10.63;2.70;;;10.00;99.90;;;;;;5004078;28;20041;-58
2022/05/09 01:26:12;;;;;;;7.25;2.17;;;10.00;99.90;;;;;;5003602;28;20030;-59
2022/05/09 01:28:39;;;;;;;6.55;2.92;;;10.00;99.90;;;;;;5008274;28;20052;-60
2022/05/09 01:31:09;;;;;;;7.97;2.90;;;10.00;99.90;;;;;;4996637;28;20538;-60
2022/05/09 01:33:40;;;;;;;7.10;2.60;;;10.00;99.90;;;;;;5000008;28;20053;-60
2022/05/09 01:36:15;;;;;;;5.20;2.75;;;10.00;99.90;;;;;;4994113;28;20046;-60
2022/05/09 01:38:50;;;;;;;23.23;3.40;;;10.00;99.90;;;;;;5007660;28;20029;-59
2022/05/09 01:41:16;;;;;;;6.50;2.60;;;9.90;99.90;;;;;;5006464;28;20061;-57
2022/05/09 01:43:45;;;;;;;13.30;2.72;;;9.90;99.90;;;;;;4997963;28;20068;-60
2022/05/09 01:46:20;;;;;;;6.50;3.08;;;9.90;99.90;;;;;;5008778;28;20037;-60
2022/05/09 01:51:32;;;;;;;4.78;2.58;;;9.80;99.90;;;;;;4993386;28;20157;-59
2022/05/09 01:53:57;;;;;;;8.30;3.35;;;9.80;99.90;;;;;;4997951;28;20029;-59
2022/05/09 01:56:28;;;;;;;11.90;3.47;;;9.80;99.90;;;;;;5003036;28;20033;-59
2022/05/09 01:58:54;;;;;;;5.93;2.40;;;9.70;99.90;;;;;;4997574;28;20025;-59
2022/05/09 02:01:22;;;;;;;9.48;2.85;;;9.70;99.90;;;;;;4994026;28;20501;-60
2022/05/09 02:03:49;;;;;;;8.73;2.95;;;9.60;99.90;;;;;;4997092;28;20030;-60
2022/05/09 02:06:17;;;;;;;15.95;3.20;;;9.60;99.90;;;;;;4978665;28;20026;-60
2022/05/09 02:08:43;;;;;;;12.90;2.92;;;9.60;99.90;;;;;;5001116;28;20152;-59
2022/05/09 02:11:09;;;;;;;9.50;2.05;;;9.60;99.90;;;;;;5001133;28;20042;-59
2022/05/09 02:13:35;;;;;;;10.60;2.97;;;9.60;99.90;;;;;;4998311;28;20061;-57
2022/05/09 02:16:01;;;;;;;10.32;2.30;;;9.60;99.90;;;;;;4970706;28;20041;-59
2022/05/09 02:18:27;;;;;;;9.95;3.35;;;9.60;99.90;;;;;;4998306;28;20037;-60
2022/05/09 02:20:53;;;;;;;5.53;2.40;;;9.60;99.90;;;;;;4994832;28;20462;-59
2022/05/09 02:23:19;;;;;;;9.27;2.80;;;9.50;99.90;;;;;;5004102;28;20025;-59
2022/05/09 02:25:45;;;;;;;12.18;3.10;;;9.50;99.90;;;;;;4998618;28;20109;-60
2022/05/09 02:28:12;;;;;;;14.13;3.28;;;9.50;99.90;;;;;;4992228;28;20117;-59
2022/05/09 02:30:39;;;;;;;7.45;2.75;;;9.40;99.90;;;;;;4996075;28;20026;-60
2022/05/09 02:33:05;;;;;;;10.55;2.90;;;9.40;99.90;;;;;;4991655;28;20129;-58
2022/05/09 02:35:33;;;;;;;7.55;2.45;;;9.40;99.90;;;;;;4986362;28;20054;-59
2022/05/09 02:37:59;;;;;;;8.05;2.22;;;9.40;99.90;;;;;;5005272;28;20109;-59
2022/05/09 02:40:25;;;;;;;4.47;2.20;;;9.40;99.90;;;;;;5010362;28;20112;-57
2022/05/09 02:42:52;;;;;;;8.27;2.55;;;9.30;99.90;;;;;;5013322;28;20056;-59
2022/05/09 02:45:17;;;;;;;12.13;2.80;;;9.20;99.90;;;;;;5012043;28;20507;-60
2022/05/09 02:47:43;;;;;;;7.95;3.00;;;9.20;99.90;;;;;;5013726;28;20084;-60
2022/05/09 02:50:10;;;;;;;7.38;2.60;;;9.20;99.90;;;;;;5011568;28;20105;-60
2022/05/09 02:52:37;;;;;;;10.60;2.50;;;9.20;99.90;;;;;;5013234;28;20095;-59
2022/05/09 02:55:05;;;;;;;6.97;2.63;;;9.10;99.90;;;;;;5010446;28;20026;-59
2022/05/09 02:57:31;;;;;;;6.57;2.80;;;9.10;99.90;;;;;;5025744;28;20030;-58
2022/05/09 02:59:56;;;;;;;5.97;2.60;;;9.10;99.90;;;;;;5010307;28;20438;-59
2022/05/09 03:02:22;;;;;;;9.95;2.75;;;9.10;99.90;;;;;;5010945;28;20052;-60
2022/05/09 03:04:48;;;;;;;8.20;2.72;;;9.00;99.90;;;;;;5010761;28;20029;-58
2022/05/09 03:07:16;;;;;;;8.43;3.03;;;9.00;99.90;;;;;;5012605;28;20538;-58
2022/05/09 03:09:44;;;;;;;7.28;2.45;;;9.00;99.90;;;;;;5012431;28;20057;-59
2022/05/09 03:12:11;;;;;;;11.70;3.90;;;9.00;99.90;;;;;;5011387;28;20021;-59
2022/05/09 03:14:38;;;;;;;8.68;2.90;;;9.00;99.90;;;;;;5007606;28;20033;-60
2022/05/09 03:17:05;;;;;;;7.88;2.75;;;9.00;99.90;;;;;;5008049;28;20076;-59
2022/05/09 03:19:31;;;;;;;9.73;2.63;;;9.00;99.90;;;;;;5011117;28;20053;-60
2022/05/09 03:21:57;;;;;;;10.35;3.13;;;9.00;99.90;;;;;;5005107;28;20057;-60
2022/05/09 03:24:23;;;;;;;7.50;2.50;;;9.00;99.90;;;;;;5009214;28;20042;-60
2022/05/09 03:26:49;;;;;;;6.55;2.67;;;9.00;99.90;;;;;;5006824;28;20034;-59
2022/05/09 03:29:18;;;;;;;6.82;2.55;;;9.00;99.90;;;;;;4988710;28;20549;-60
2022/05/09 03:31:44;;;;;;;9.85;2.95;;;9.00;99.90;;;;;;5005891;28;20540;-57
2022/05/09 03:34:09;;;;;;;6.78;3.40;;;9.00;99.90;;;;;;5004148;28;20044;-58
2022/05/09 03:36:35;;;;;;;8.70;2.85;;;9.00;99.90;;;;;;4992762;28;20492;-60
2022/05/09 03:39:01;;;;;;;9.07;3.25;;;9.10;99.90;;;;;;5011037;28;20057;-59
2022/05/09 03:41:26;;;;;;;8.35;3.60;;;9.00;99.90;;;;;;5009857;28;20116;-57
2022/05/09 03:43:52;;;;;;;8.55;2.90;;;9.00;99.90;;;;;;5009730;28;20030;-60
2022/05/09 03:46:18;;;;;;;7.90;2.88;;;9.00;99.90;;;;;;5012529;28;20030;-60
2022/05/09 03:48:43;;;;;;;6.53;3.17;;;8.90;99.90;;;;;;5007054;28;20026;-59
2022/05/09 03:51:09;;;;;;;7.90;2.58;;;8.90;99.90;;;;;;5008360;28;20104;-60
2022/05/09 03:53:35;;;;;;;7.13;2.65;;;9.00;99.90;;;;;;5000864;28;20010;-60
2022/05/09 03:56:01;;;;;;;8.75;3.03;;;9.00;99.90;;;;;;5004942;28;20026;-59
2022/05/09 03:58:27;;;;;;;12.68;3.60;;;9.00;99.90;;;;;;5008919;28;20548;-60
2022/05/09 04:00:52;;;;;;;9.00;2.70;;;9.00;99.90;;;;;;5007975;28;20023;-60
2022/05/09 04:03:18;;;;;;;10.07;3.25;;;9.10;99.90;;;;;;5010169;28;20648;-59
2022/05/09 04:05:44;;;;;;;6.90;2.75;;;9.10;99.90;;;;;;5008025;28;20018;-60
2022/05/09 04:08:16;;;;;;;12.93;3.33;;;9.10;99.90;;;;;;5010493;28;20038;-60
2022/05/09 04:10:42;;;;;;;10.48;2.80;;;9.10;99.90;;;;;;5005123;28;20030;-60
2022/05/09 04:13:08;;;;;;;11.05;2.92;;;9.10;99.90;;;;;;5009503;28;20053;-58
2022/05/09 04:18:19;;;;;;;11.50;2.97;;;9.20;99.90;;;;;;4999347;28;20033;-60
2022/05/09 04:20:46;;;;;;;8.68;3.00;;;9.20;99.90;;;;;;5008934;28;20096;-60
2022/05/09 04:23:12;;;;;;;13.40;3.85;;;9.20;99.90;;;;;;5010644;28;20467;-60
2022/05/09 04:25:38;;;;;;;5.85;2.78;;;9.30;99.90;;;;;;5003448;28;20096;-60
2022/05/09 04:28:06;;;;;;;13.93;2.97;;;9.30;99.90;;;;;;5007166;28;20399;-59
2022/05/09 04:30:35;;;;;;;10.80;2.88;;;9.40;99.90;;;;;;5004981;28;20553;-59
2022/05/09 04:33:01;;;;;;;9.40;3.80;;;9.60;99.90;;;;;;5009111;28;20077;-60
2022/05/09 04:35:28;;;;;;;10.52;2.55;;;9.70;99.90;;;;;;4990722;28;20913;-57
2022/05/09 04:37:54;;;;;;;9.30;2.50;;;9.80;99.90;;;;;;5003216;28;20221;-60
2022/05/09 04:40:28;;;;;;;6.55;2.38;;;9.90;99.90;;;;;;5007626;28;20026;-59
2022/05/09 04:42:56;;;;;;;6.35;2.38;;;10.00;99.90;;;;;;5010470;28;20611;-59
2022/05/09 04:45:22;;;;;;;7.80;2.30;;;10.10;99.90;;;;;;5008113;28;20034;-60
2022/05/09 04:47:50;;;;;;;6.78;2.33;;;10.20;99.90;;;;;;5005389;28;20038;-60
2022/05/09 04:50:19;;;;;;;5.88;2.13;;;10.30;99.90;;;;;;5007487;28;20112;-59
2022/05/09 04:52:45;;;;;;;8.20;2.30;;;10.40;99.90;;;;;;5009071;28;20022;-59
2022/05/09 04:55:11;;;;;;;8.80;2.85;;;10.50;99.90;;;;;;5009370;28;20021;-60
2022/05/09 04:57:37;;;;;;;6.63;2.47;;;10.50;99.90;;;;;;5005539;28;20435;-59
2022/05/09 05:00:05;;;;;;;6.45;1.98;;;10.70;99.90;;;;;;5009536;28;20084;-60
2022/05/09 05:02:31;;;;;;;7.50;2.17;;;10.90;99.90;;;;;;5009040;28;20061;-59
2022/05/09 05:04:56;;;;;;;4.38;2.03;;;11.50;99.90;;;;;;5008177;28;20030;-60
2022/05/09 05:07:22;;;;;;;4.85;2.13;;;12.70;99.90;;;;;;5010689;28;20049;-60
2022/05/09 05:09:48;;;;;;;5.18;2.10;;;14.10;99.90;;;;;;5010982;28;20034;-59
2022/05/09 05:12:13;;;;;;;4.80;2.10;;;15.20;97.30;;;;;;5008284;28;20372;-61
2022/05/09 05:14:39;;;;;;;5.88;2.67;;;15.90;96.00;;;;;;5004759;28;20097;-60
2022/05/09 05:17:04;;;;;;;6.47;2.05;;;16.90;94.00;;;;;;4997225;28;20030;-60
2022/05/09 05:19:34;;;;;;;6.40;2.10;;;17.80;91.80;;;;;;5007972;28;20073;-60
2022/05/09 05:22:01;;;;;;;3.80;1.60;;;18.40;90.40;;;;;;5008067;28;20073;-60
2022/05/09 05:24:27;;;;;;;4.78;2.22;;;19.00;89.70;;;;;;5008983;28;20030;-60
2022/05/09 05:26:54;;;;;;;5.53;1.73;;;19.00;88.80;;;;;;5001311;28;20026;-61
2022/05/09 05:29:23;;;;;;;4.00;1.95;;;19.70;84.60;;;;;;5007239;28;20018;-61
2022/05/09 05:31:49;;;;;;;4.50;1.70;;;20.50;82.20;;;;;;5008450;28;20022;-61
2022/05/09 05:34:15;;;;;;;7.10;1.67;;;20.60;80.60;;;;;;4979972;28;20042;-60
2022/05/09 05:36:40;;;;;;;8.73;1.63;;;20.70;80.70;;;;;;4991858;28;20099;-60
2022/05/09 05:39:08;;;;;;;9.68;3.13;;;20.40;80.30;;;;;;5007336;28;20021;-61
2022/05/09 05:41:34;;;;;;;6.47;2.20;;;20.50;80.00;;;;;;5009466;28;20033;-61
2022/05/09 05:43:59;;;;;;;4.88;2.08;;;21.40;77.90;;;;;;5006740;28;20439;-60
2022/05/09 05:46:25;;;;;;;7.00;1.73;;;22.40;74.20;;;;;;5008369;28;20112;-59
2022/05/09 05:48:51;;;;;;;5.20;1.75;;;22.60;74.80;;;;;;5006872;28;20026;-60
2022/05/09 05:51:18;;;;;;;5.22;1.98;;;22.50;73.70;;;;;;5007552;28;20030;-60
2022/05/09 05:53:45;;;;;;;4.78;1.60;;;21.80;75.50;;;;;;5008614;28;20418;-59
2022/05/09 05:56:11;;;;;;;8.68;2.95;;;22.40;74.60;;;;;;5005175;28;20564;-59
2022/05/09 05:58:37;;;;;;;10.65;2.28;;;22.90;72.40;;;;;;5004591;28;20022;-60
2022/05/09 06:01:03;;;;;;;4.55;1.88;;;22.40;72.20;;;;;;5007287;28;20037;-59
2022/05/09 06:03:28;;;;;;;7.63;2.25;;;22.70;72.90;;;;;;5005969;28;20038;-55
2022/05/09 06:05:54;;;;;;;5.93;2.05;;;23.80;70.30;;;;;;5008667;28;20418;-60
2022/05/09 06:08:20;;;;;;;4.38;1.88;;;23.80;67.60;;;;;;5006860;28;20045;-60
2022/05/09 06:10:47;;;;;;;4.28;2.35;;;24.10;68.90;;;;;;4999704;28;20038;-59
2022/05/09 06:13:13;;;;;;;6.53;2.10;;;24.10;67.50;;;;;;5012254;28;20061;-60
2022/05/09 06:15:38;;;;;;;6.22;2.33;;;23.80;67.60;;;;;;5016161;28;20061;-60
2022/05/09 06:18:08;;;;;;;7.05;2.00;;;24.20;67.50;;;;;;5014558;28;20112;-60
2022/05/09 06:20:38;;;;;;;5.93;2.03;;;24.60;66.20;;;;;;5014343;28;20026;-60
2022/05/09 06:23:05;;;;;;;9.32;2.53;;;24.50;66.60;;;;;;5016281;28;20077;-60
2022/05/09 06:25:34;;;;;;;9.82;2.47;;;24.40;65.80;;;;;;5010673;28;20038;-59
2022/05/09 06:28:00;;;;;;;7.82;2.53;;;24.50;66.30;;;;;;5008615;28;20029;-59
2022/05/09 06:30:27;;;;;;;6.13;1.80;;;25.00;66.90;;;;;;5002148;28;20117;-59
2022/05/09 06:32:53;;;;;;;4.70;2.00;;;25.00;66.70;;;;;;5006828;28;20166;-60
2022/05/09 06:35:23;;;;;;;4.57;1.92;;;25.30;63.60;;;;;;5007878;28;20104;-59
2022/05/09 06:37:50;;;;;;;6.95;2.17;;;25.30;63.90;;;;;;4997947;28;20030;-60
2022/05/09 06:40:17;;;;;;;5.03;2.05;;;25.50;64.00;;;;;;5014175;28;20029;-60
2022/05/09 06:42:43;;;;;;;5.65;2.20;;;25.70;64.50;;;;;;5011826;28;20030;-59
2022/05/09 06:45:10;;;;;;;4.55;2.03;;;25.60;65.10;;;;;;5010492;28;20029;-60
2022/05/09 06:47:44;;;;;;;7.03;1.98;;;25.60;62.70;;;;;;5007506;28;20026;-60
2022/05/09 06:50:09;;;;;;;6.35;2.08;;;25.30;64.50;;;;;;5011320;28;20483;-60
2022/05/09 06:52:36;;;;;;;4.28;2.08;;;26.90;63.30;;;;;;5003465;28;20033;-60
2022/05/09 06:55:02;;;;;;;8.95;2.58;;;26.90;61.30;;;;;;5001029;28;20475;-60
2022/05/09 06:57:28;;;;;;;6.57;2.58;;;26.50;62.40;;;;;;5013387;28;20030;-59
2022/05/09 06:59:53;;;;;;;9.32;2.10;;;26.80;62.20;;;;;;5007339;28;20499;-59
2022/05/09 07:02:19;;;;;;;9.15;2.67;;;26.60;62.50;;;;;;5003221;28;20089;-59
2022/05/09 07:04:44;;;;;;;4.70;2.63;;;26.70;62.10;;;;;;5007142;28;20192;-60
2022/05/09 07:07:10;;;;;;;6.50;2.42;;;26.60;61.90;;;;;;5015026;28;20018;-60
2022/05/09 07:09:35;;;;;;;6.15;1.92;;;27.10;61.50;;;;;;5013349;28;20037;-60
2022/05/09 07:12:01;;;;;;;39.67;2.83;;;27.20;62.10;;;;;;5014551;28;20045;-59
2022/05/09 07:14:26;;;;;;;5.65;2.40;;;27.60;61.40;;;;;;5002058;28;20034;-60
2022/05/09 07:16:52;;;;;;;9.35;2.25;;;28.70;60.30;;;;;;5004574;28;20097;-60
2022/05/09 07:19:17;;;;;;;5.35;2.25;;;29.10;59.60;;;;;;5013569;28;20108;-60
2022/05/09 07:21:43;;;;;;;9.07;2.28;;;28.60;57.40;;;;;;5015474;28;20029;-60
2022/05/09 07:24:10;;;;;;;5.32;2.40;;;28.30;59.20;;;;;;5001060;28;20022;-60
2022/05/09 07:26:36;;;;;;;4.38;1.92;;;28.10;58.10;;;;;;4991765;28;20602;-60
2022/05/09 07:29:02;;;;;;;3.20;1.73;;;28.00;58.10;;;;;;5009740;28;20034;-60
2022/05/09 07:31:27;;;;;;;5.47;2.53;;;28.90;58.00;;;;;;5010720;28;20029;-57
2022/05/09 07:33:53;;;;;;;6.65;2.30;;;28.90;56.80;;;;;;5000567;28;20138;-60
2022/05/09 07:36:18;;;;;;;6.97;2.30;;;28.60;57.10;;;;;;4994055;28;20050;-59
2022/05/09 07:38:44;;;;;;;8.15;2.38;;;28.80;57.60;;;;;;5003505;28;20045;-60
2022/05/09 07:41:10;;;;;;;5.43;2.20;;;28.90;58.00;;;;;;5011057;28;20561;-59
2022/05/09 07:43:35;;;;;;;8.48;2.33;;;30.50;57.60;;;;;;5007857;28;20087;-60
2022/05/09 07:46:01;;;;;;;8.50;2.85;;;30.90;56.20;;;;;;5008350;28;20038;-59
2022/05/09 07:48:29;;;;;;;6.00;3.00;;;30.10;55.90;;;;;;5006102;28;20030;-59
2022/05/09 07:50:56;;;;;;;5.32;2.10;;;29.70;57.20;;;;;;5011258;28;20030;-60
2022/05/09 07:53:25;;;;;;;6.80;2.75;;;30.60;57.30;;;;;;5004428;28;20034;-60
2022/05/09 07:55:51;;;;;;;8.70;2.67;;;30.50;57.00;;;;;;5003019;28;20255;-59
2022/05/09 07:58:17;;;;;;;7.82;3.00;;;30.80;55.40;;;;;;5010250;28;20022;-60
2022/05/09 08:00:45;;;;;;;8.40;2.20;;;30.10;55.90;;;;;;5008937;28;20030;-60
2022/05/09 08:03:20;;;;;;;7.00;2.53;;;29.90;56.20;;;;;;5011057;28;20026;-59
2022/05/09 08:05:46;;;;;;;7.30;3.45;;;30.00;57.20;;;;;;5006228;28;20030;-60
2022/05/09 08:08:12;;;;;;;4.25;2.20;;;29.80;56.30;;;;;;5007343;28;20025;-61
2022/05/09 08:10:39;;;;;;;3.95;2.95;;;29.10;56.50;;;;;;5004236;28;20407;-61
2022/05/09 08:13:05;;;;;;;10.50;2.45;;;29.30;56.20;;;;;;5007246;28;20034;-60
2022/05/09 08:15:31;;;;;;;7.18;2.50;;;28.90;57.80;;;;;;5008839;28;20030;-60
2022/05/09 08:17:58;;;;;;;6.18;2.70;;;30.20;57.00;;;;;;5009126;28;20088;-60
2022/05/09 08:20:24;;;;;;;6.60;3.00;;;31.20;55.00;;;;;;5009249;28;20030;-60
2022/05/09 08:23:03;;;;;;;6.13;2.65;;;31.10;54.70;;;;;;5006071;28;20041;-58
2022/05/09 08:25:30;;;;;;;6.68;2.72;;;30.30;55.10;;;;;;5009240;28;20109;-59
2022/05/09 08:27:56;;;;;;;4.68;2.60;;;30.60;55.50;;;;;;5010438;28;20118;-60
2022/05/09 08:30:21;;;;;;;7.70;3.30;;;30.80;55.60;;;;;;5009482;28;20563;-60
2022/05/09 08:32:47;;;;;;;5.30;2.58;;;30.80;55.00;;;;;;5005782;28;20018;-60
2022/05/09 08:35:13;;;;;;;6.88;2.65;;;30.60;55.50;;;;;;5002600;28;20035;-60
2022/05/09 08:37:39;;;;;;;5.45;3.03;;;29.70;55.10;;;;;;5007932;28;20038;-60
2022/05/09 08:40:06;;;;;;;8.48;3.20;;;29.40;56.60;;;;;;5008584;28;20502;-60
2022/05/09 08:42:47;;;;;;;7.53;2.63;;;29.70;55.90;;;;;;5009353;28;20076;-59
2022/05/09 08:45:39;;;;;;;8.63;3.00;;;29.40;56.40;;;;;;5009864;28;20033;-61
2022/05/09 08:48:22;;;;;;;5.25;3.08;;;30.30;55.30;;;;;;5010021;28;20030;-60
2022/05/09 08:51:43;;;;;;;5.13;2.45;;;30.30;56.30;;;;;;5003208;28;20631;-60
2022/05/09 08:54:13;;;;;;;5.45;2.45;;;29.80;55.90;;;;;;4969211;28;20045;-60
2022/05/09 08:56:40;;;;;;;6.72;2.63;;;29.70;56.80;;;;;;5008325;28;20021;-60
2022/05/09 08:59:12;;;;;;;6.05;2.67;;;29.70;56.90;;;;;;5009229;28;20018;-59
2022/05/09 09:02:11;;;;;;;6.47;2.97;;;30.60;56.10;;;;;;5010056;28;20032;-60
2022/05/09 09:04:38;;;;;;;7.10;3.10;;;31.10;55.40;;;;;;5006750;28;20057;-60
2022/05/09 09:07:22;;;;;;;4.40;2.60;;;30.90;55.00;;;;;;5010254;28;20513;-59
2022/05/09 09:10:13;;;;;;;5.47;2.40;;;30.40;55.90;;;;;;5007077;28;20030;-60
2022/05/09 09:13:04;;;;;;;4.93;2.50;;;29.60;57.40;;;;;;5002027;28;20029;-60
2022/05/09 09:15:55;;;;;;;8.55;3.13;;;29.50;56.90;;;;;;4999027;28;20113;-55
2022/05/09 09:19:04;;;;;;;5.53;2.60;;;29.50;57.00;;;;;;5006247;28;20080;-60
2022/05/09 09:21:42;;;;;;;7.22;3.05;;;30.00;56.80;;;;;;5008305;28;20049;-56
2022/05/09 09:24:44;;;;;;;8.50;3.03;;;29.40;56.90;;;;;;5008442;28;20024;-61
2022/05/09 09:27:46;;;;;;;4.87;2.83;;;29.70;58.00;;;;;;5007065;28;20105;-60
2022/05/09 09:30:17;;;;;;;6.43;2.80;;;29.80;57.30;;;;;;5003842;28;20033;-60
2022/05/09 09:32:50;;;;;;;4.95;2.78;;;29.10;57.70;;;;;;5004123;28;20014;-61
2022/05/09 09:35:40;;;;;;;4.90;2.50;;;29.10;56.80;;;;;;5010158;28;20026;-60
2022/05/09 09:38:29;;;;;;;5.85;2.70;;;30.20;56.70;;;;;;4994040;28;20092;-60
2022/05/09 09:40:55;;;;;;;5.50;2.70;;;30.50;57.40;;;;;;5010601;28;20038;-60
2022/05/09 09:43:20;;;;;;;6.10;3.05;;;30.70;56.10;;;;;;5008148;28;20399;-61
2022/05/09 09:46:00;;;;;;;5.60;2.67;;;29.80;56.90;;;;;;5005719;28;20097;-60
2022/05/09 09:48:26;;;;;;;7.40;2.78;;;29.80;58.70;;;;;;5008894;28;20521;-60
2022/05/09 09:50:53;;;;;;;9.90;2.60;;;29.60;57.10;;;;;;5015410;28;20034;-60
2022/05/09 09:53:48;;;;;;;7.25;2.40;;;29.40;58.40;;;;;;5001352;28;20052;-60
2022/05/09 09:56:23;;;;;;;11.30;2.70;;;29.80;58.60;;;;;;4991677;28;20792;-60
2022/05/09 09:58:51;;;;;;;6.28;2.95;;;30.00;57.10;;;;;;5001873;28;20021;-60
2022/05/09 10:01:28;;;;;;;6.88;3.25;;;29.80;57.50;;;;;;5003707;28;20038;-59
2022/05/09 10:04:09;;;;;;;6.53;2.67;;;29.10;57.00;;;;;;4998653;28;20022;-60
2022/05/09 10:06:55;;;;;;;7.85;2.90;;;28.80;59.00;;;;;;5009114;28;20061;-60
2022/05/09 10:09:21;;;;;;;8.40;3.55;;;28.70;60.30;;;;;;5004956;28;20476;-60
2022/05/09 10:11:47;;;;;;;5.47;2.88;;;28.00;59.70;;;;;;5007050;28;20025;-59
2022/05/09 10:14:34;;;;;;;4.75;3.33;;;27.30;60.80;;;;;;5002801;28;20018;-60
2022/05/09 10:17:21;;;;;;;5.57;3.15;;;27.40;60.90;;;;;;5002417;28;20079;-59
2022/05/09 10:19:48;;;;;;;5.47;3.30;;;27.20;61.50;;;;;;5001806;28;20042;-60
2022/05/09 10:25:18;;;;;;;4.03;3.13;;;27.30;61.20;;;;;;4997463;28;20041;-59
2022/05/09 10:27:45;;;;;;;5.97;3.40;;;27.10;63.60;;;;;;5006848;28;20061;-60
2022/05/09 10:30:17;;;;;;;5.95;3.03;;;27.00;62.00;;;;;;5006245;28;20408;-58
2022/05/09 10:32:52;;;;;;;7.88;3.25;;;26.90;63.10;;;;;;4995234;28;20399;-59
2022/05/09 10:35:28;;;;;;;5.90;3.00;;;26.50;62.20;;;;;;5006788;28;20029;-60
2022/05/09 10:38:11;;;;;;;3.58;2.85;;;26.60;64.00;;;;;;4977798;28;20034;-60
2022/05/09 10:40:46;;;;;;;8.93;3.30;;;26.40;63.30;;;;;;4999548;28;20025;-59
2022/05/09 10:43:26;;;;;;;5.15;3.40;;;26.40;63.80;;;;;;5000127;28;20034;-59
2022/05/09 10:45:53;;;;;;;5.93;2.90;;;26.50;63.10;;;;;;5008794;28;20080;-60
2022/05/09 10:48:24;;;;;;;3.95;2.67;;;26.60;63.50;;;;;;5007508;28;20058;-58
2022/05/09 10:51:01;;;;;;;8.65;3.10;;;26.70;62.80;;;;;;5001582;28;20025;-59
2022/05/09 10:53:55;;;;;;;5.43;3.00;;;26.60;62.40;;;;;;5004789;28;20030;-59
2022/05/09 10:56:29;;;;;;;;;;;26.40;64.80;;;;;;5005526;28;20076;-58
2022/05/09 10:59:08;;;;;;;5.32;2.92;;;26.50;64.80;;;;;;5002016;28;19970;-58
2022/05/09 11:01:50;;;;;;;7.68;2.85;;;26.60;64.10;;;;;;5003721;28;20072;-60
2022/05/09 11:04:16;;;;;;;4.63;2.70;;;26.70;64.20;;;;;;5000578;28;20112;-58
2022/05/09 11:07:07;;;;;;;6.55;3.20;;;26.70;61.60;;;;;;5001440;28;20037;-59
2022/05/09 11:09:56;;;;;;;6.43;3.35;;;26.60;62.50;;;;;;4999033;28;20038;-58
2022/05/09 11:12:46;;;;;;;7.97;3.50;;;26.40;61.30;;;;;;5009180;28;20034;-59
2022/05/09 11:15:35;;;;;;;4.97;3.28;;;26.00;62.60;;;;;;5010541;28;20514;-58
2022/05/09 11:18:13;;;;;;;9.80;3.45;;;26.10;62.40;;;;;;5012161;28;20026;-60
2022/05/09 11:21:02;;;;;;;4.50;2.80;;;26.10;63.90;;;;;;5007031;28;20021;-58
2022/05/09 11:23:35;;;;;;;11.68;3.60;;;26.00;61.60;;;;;;5008510;28;20450;-60
2022/05/09 11:26:10;;;;;;;3.92;2.80;;;25.60;63.70;;;;;;5006348;28;20065;-59
2022/05/09 11:28:57;;;;;;;6.72;3.80;;;25.80;63.10;;;;;;5010371;28;20030;-60
2022/05/09 11:32:02;;;;;;;6.35;3.20;;;25.80;62.80;;;;;;5010902;28;20391;-60
2022/05/09 11:34:39;;;;;;;5.78;2.63;;;26.10;62.90;;;;;;5002376;28;20043;-58
2022/05/09 11:37:43;;;;;;;7.63;3.00;;;26.30;62.20;;;;;;4990816;28;20036;-59
2022/05/09 11:40:44;;;;;;;3.70;2.70;;;26.30;61.40;;;;;;5000592;28;20032;-58
2022/05/09 11:43:27;;;;;;;5.82;3.25;;;26.30;61.30;;;;;;4996078;28;20111;-59
2022/05/09 11:46:08;;;;;;;8.43;3.53;;;26.10;62.40;;;;;;5001884;28;20073;-59
2022/05/09 11:48:57;;;;;;;6.97;3.60;;;26.20;62.50;;;;;;5009619;28;20630;-59
2022/05/09 11:51:50;;;;;;;5.40;3.38;;;26.20;62.50;;;;;;5008495;28;20030;-59
2022/05/09 11:54:21;;;;;;;7.47;3.70;;;26.20;63.80;;;;;;5005871;28;20026;-58
2022/05/09 11:56:52;;;;;;;5.60;3.20;;;26.10;62.00;;;;;;5004466;28;20060;-59
2022/05/09 11:59:27;;;;;;;6.78;3.47;;;25.90;63.20;;;;;;5005006;28;20159;-58
2022/05/09 12:02:06;;;;;;;8.32;2.95;;;25.70;62.50;;;;;;5003128;28;20026;-58
2022/05/09 12:04:46;;;;;;;5.75;3.20;;;25.50;62.70;;;;;;4999503;28;20034;-59
2022/05/09 12:07:23;;;;;;;6.30;2.47;;;25.60;63.00;;;;;;5016544;28;20048;-59
2022/05/09 12:10:00;;;;;;;4.97;2.90;;;25.70;62.70;;;;;;5003343;28;20380;-60
2022/05/09 12:12:41;;;;;;;3.40;2.55;;;25.90;59.80;;;;;;5005020;28;20061;-58
2022/05/09 12:15:12;;;;;;;3.58;2.80;;;25.90;62.10;;;;;;5009123;28;20026;-57
2022/05/09 12:17:39;;;;;;;10.18;2.85;;;25.90;61.50;;;;;;5008297;28;20022;-58
2022/05/09 12:20:08;;;;;;;8.90;3.33;;;25.70;62.90;;;;;;5007244;28;20034;-59
2022/05/09 12:22:37;;;;;;;4.30;2.97;;;25.90;62.50;;;;;;5004802;28;20042;-59
2022/05/09 12:25:13;;;;;;;3.65;2.28;;;25.70;62.70;;;;;;5005666;28;20034;-60
2022/05/09 12:28:03;;;;;;;5.43;3.08;;;25.90;63.50;;;;;;5003064;28;20084;-59
2022/05/09 12:30:42;;;;;;;4.28;2.72;;;25.90;61.70;;;;;;5007733;28;20040;-59
2022/05/09 12:33:23;;;;;;;5.10;2.72;;;26.00;62.40;;;;;;5001808;28;20404;-59
2022/05/09 12:35:51;;;;;;;4.15;2.42;;;25.90;61.70;;;;;;5011233;28;20033;-60
2022/05/09 12:38:23;;;;;;;4.10;2.58;;;25.70;62.40;;;;;;4993665;28;20052;-60
2022/05/09 12:40:57;;;;;;;6.18;3.35;;;25.60;62.60;;;;;;5004378;28;20491;-60
2022/05/09 12:43:23;;;;;;;6.47;2.63;;;25.30;61.60;;;;;;5000552;28;20035;-59
2022/05/09 12:45:48;;;;;;;4.85;2.90;;;25.20;61.90;;;;;;5001409;28;20053;-59
2022/05/09 12:48:14;;;;;;;5.72;2.78;;;25.20;64.20;;;;;;5006572;28;20034;-58
2022/05/09 12:50:43;;;;;;;5.07;3.15;;;25.30;64.40;;;;;;5012622;28;20028;-59
2022/05/09 12:53:13;;;;;;;4.80;2.92;;;25.40;64.30;;;;;;5006236;28;20411;-58
2022/05/09 12:55:57;;;;;;;8.73;3.38;;;25.60;62.80;;;;;;4988175;28;20076;-59
2022/05/09 12:58:33;;;;;;;3.75;2.53;;;25.20;61.10;;;;;;5000999;28;20498;-60
2022/05/09 13:01:11;;;;;;;7.45;3.05;;;25.10;61.50;;;;;;4998768;28;20503;-59
2022/05/09 13:03:52;;;;;;;7.63;3.17;;;25.10;62.00;;;;;;5004658;28;20099;-59
2022/05/09 13:06:24;;;;;;;3.75;3.00;;;25.20;63.40;;;;;;4993324;28;20468;-59
2022/05/09 13:08:51;;;;;;;5.50;2.80;;;25.20;63.50;;;;;;5019255;28;20060;-59
2022/05/09 13:11:22;;;;;;;3.53;2.20;;;25.20;64.00;;;;;;5011306;28;20401;-59
2022/05/09 13:14:13;;;;;;;6.60;2.83;;;25.30;63.70;;;;;;5009641;28;20399;-59
2022/05/09 13:16:41;;;;;;;6.65;2.78;;;25.10;62.20;;;;;;5007156;28;20152;-60